createdAt,value
2018-06-15T00:03:02.969Z,4.40
2018-06-15T00:08:07.685Z,6.53
2018-06-15T00:13:13.049Z,4.25
2018-06-15T00:18:17.754Z,6.05
2018-06-15T00:23:22.522Z,3.08
2018-06-15T00:28:27.365Z,6.05
2018-06-15T00:33:31.860Z,4.37
2018-06-15T00:38:36.783Z,7.90
2018-06-15T00:43:41.559Z,3.35
2018-06-15T00:48:46.200Z,3.12
2018-06-15T00:53:50.950Z,5.95
2018-06-15T00:58:55.695Z,4.10
2018-06-15T01:04:00.634Z,5.22
2018-06-15T01:09:07.559Z,3.70
2018-06-15T01:14:12.237Z,4.78
2018-06-15T01:19:17.027Z,4.55
2018-06-15T01:24:21.756Z,3.60
2018-06-15T01:29:26.729Z,4.20
2018-06-15T01:34:31.341Z,4.60
2018-06-15T01:39:36.094Z,4.42
2018-06-15T01:44:40.971Z,4.12
2018-06-15T01:49:45.762Z,4.05
2018-06-15T01:54:51.081Z,6.25
2018-06-15T01:59:55.956Z,5.92
2018-06-15T02:05:00.718Z,5.60
2018-06-15T02:10:05.871Z,4.20
2018-06-15T02:15:10.916Z,3.67
2018-06-15T02:20:15.783Z,4.75
2018-06-15T02:25:20.712Z,4.60
2018-06-15T02:30:25.677Z,6.17
2018-06-15T02:35:31.013Z,5.08
2018-06-15T02:40:36.061Z,5.22
2018-06-15T02:45:40.981Z,4.90
2018-06-15T02:50:45.756Z,4.83
2018-06-15T02:55:50.577Z,5.10
2018-06-15T03:00:55.449Z,6.17
2018-06-15T03:06:00.407Z,6.97
2018-06-15T03:11:04.531Z,5.67
2018-06-15T03:16:09.366Z,6.12
2018-06-15T03:21:14.186Z,6.65
2018-06-15T03:26:19.445Z,8.85
2018-06-15T03:31:25.420Z,7.12
2018-06-15T03:36:30.038Z,6.30
2018-06-15T03:41:34.659Z,7.70
2018-06-15T03:46:39.479Z,8.00
2018-06-15T03:51:44.414Z,7.08
2018-06-15T03:56:49.125Z,8.33
2018-06-15T04:01:53.691Z,6.40
2018-06-15T04:06:58.458Z,6.37
2018-06-15T04:12:03.822Z,7.40
2018-06-15T04:17:09.250Z,5.90
2018-06-15T04:22:14.399Z,6.30
2018-06-15T04:27:19.186Z,6.60
2018-06-15T04:32:23.992Z,7.85
2018-06-15T04:37:28.915Z,7.17
2018-06-15T04:42:33.834Z,6.45
2018-06-15T04:47:38.610Z,6.25
2018-06-15T04:52:43.321Z,8.28
2018-06-15T04:57:48.063Z,5.75
2018-06-15T05:02:52.763Z,9.35
2018-06-15T05:07:57.531Z,6.42
2018-06-15T05:13:02.182Z,5.83
2018-06-15T05:18:07.042Z,7.37
2018-06-15T05:23:11.645Z,7.33
2018-06-15T05:28:16.292Z,6.80
2018-06-15T05:33:21.160Z,6.87
2018-06-15T05:38:25.652Z,5.40
2018-06-15T05:43:30.432Z,8.13
2018-06-15T05:48:36.101Z,9.03
2018-06-15T05:53:41.046Z,9.28
2018-06-15T05:58:45.762Z,6.62
2018-06-15T06:03:50.496Z,6.65
2018-06-15T06:08:55.366Z,8.10
2018-06-15T06:14:00.411Z,10.03
2018-06-15T06:19:05.265Z,4.87
2018-06-15T06:24:09.964Z,6.45
2018-06-15T06:29:14.609Z,8.90
2018-06-15T06:34:19.388Z,6.17
2018-06-15T06:39:24.133Z,7.62
2018-06-15T06:44:28.934Z,6.40
2018-06-15T06:49:33.589Z,8.45
2018-06-15T06:54:38.242Z,7.47
2018-06-15T06:59:42.950Z,8.20
2018-06-15T07:04:47.573Z,7.87
2018-06-15T07:09:52.263Z,6.70
2018-06-15T07:14:58.112Z,7.75
2018-06-15T07:20:02.791Z,6.83
2018-06-15T07:25:07.722Z,7.65
2018-06-15T07:30:12.330Z,10.93
2018-06-15T07:35:17.425Z,8.50
2018-06-15T07:40:22.156Z,7.92
2018-06-15T07:45:26.979Z,10.45
2018-06-15T07:50:31.446Z,8.63
2018-06-15T07:55:35.894Z,7.72
2018-06-15T08:00:40.333Z,9.58
2018-06-15T08:05:44.809Z,8.35
2018-06-15T08:10:50.186Z,9.58
2018-06-15T08:15:54.648Z,9.15
2018-06-15T08:20:59.035Z,7.45
2018-06-15T08:26:03.375Z,8.60
2018-06-15T08:31:07.826Z,9.23
2018-06-15T08:36:12.358Z,9.45
2018-06-15T08:41:16.825Z,9.03
2018-06-15T08:46:21.405Z,9.10
2018-06-15T08:51:25.839Z,7.95
2018-06-15T08:56:30.311Z,11.60
2018-06-15T09:01:34.782Z,10.53
2018-06-15T09:06:39.182Z,9.05
2018-06-15T09:11:43.687Z,8.68
2018-06-15T09:16:48.219Z,8.78
2018-06-15T09:21:52.938Z,7.95
2018-06-15T09:26:57.420Z,8.13
2018-06-15T09:32:01.804Z,7.08
2018-06-15T09:37:06.262Z,7.25
2018-06-15T09:42:10.731Z,7.20
2018-06-15T09:47:15.294Z,9.05
2018-06-15T09:52:19.801Z,8.33
2018-06-15T09:57:24.270Z,6.62
2018-06-15T10:02:28.768Z,7.90
2018-06-15T10:07:33.185Z,6.83
2018-06-15T10:12:37.705Z,9.35
2018-06-15T10:17:42.328Z,7.12
2018-06-15T10:22:46.839Z,5.70
2018-06-15T10:27:51.422Z,5.17
2018-06-15T10:32:55.867Z,5.92
2018-06-15T10:38:00.314Z,6.45
2018-06-15T10:43:04.733Z,7.97
2018-06-15T10:48:09.392Z,6.42
2018-06-15T10:53:13.886Z,7.20
2018-06-15T10:58:18.389Z,6.97
2018-06-15T11:03:22.904Z,6.05
2018-06-15T11:08:27.374Z,6.60
2018-06-15T11:13:31.756Z,8.00
2018-06-15T11:18:36.271Z,6.58
2018-06-15T11:23:40.756Z,4.60
2018-06-15T11:28:45.142Z,7.92
2018-06-15T11:33:49.649Z,5.00
2018-06-15T11:38:54.051Z,3.55
2018-06-15T11:43:58.498Z,3.30
2018-06-15T11:49:02.988Z,3.40
2018-06-15T11:54:07.472Z,2.80
2018-06-15T11:59:11.979Z,3.55
2018-06-15T12:04:16.394Z,4.85
2018-06-15T12:09:20.880Z,3.00
2018-06-15T12:14:25.301Z,3.37
2018-06-15T12:19:29.802Z,2.65
2018-06-15T12:24:34.293Z,4.00
2018-06-15T12:29:38.695Z,4.17
2018-06-15T12:34:43.128Z,2.72
2018-06-15T12:39:47.593Z,2.72
2018-06-15T12:44:52.105Z,3.17
2018-06-15T12:49:56.480Z,5.05
2018-06-15T12:55:00.890Z,3.02
2018-06-15T13:00:05.573Z,3.40
2018-06-15T13:05:10.024Z,2.80
2018-06-15T13:10:14.475Z,2.08
2018-06-15T13:15:19.206Z,3.72
2018-06-15T13:20:23.632Z,4.97
2018-06-15T13:25:28.089Z,2.50
2018-06-15T13:30:32.534Z,2.52
2018-06-15T13:35:37.003Z,2.52
2018-06-15T13:40:41.476Z,1.80
2018-06-15T13:45:45.960Z,2.00
2018-06-15T13:50:50.462Z,3.12
2018-06-15T13:55:54.896Z,2.02
2018-06-15T14:01:00.820Z,2.85
2018-06-15T14:06:06.064Z,2.40
2018-06-15T14:11:10.587Z,2.92
2018-06-15T14:16:14.996Z,2.72
2018-06-15T14:21:19.449Z,3.12
2018-06-15T14:26:24.137Z,2.12
2018-06-15T14:31:28.529Z,3.37
2018-06-15T14:36:32.990Z,2.87
2018-06-15T14:41:37.514Z,2.67
2018-06-15T14:46:42.010Z,2.87
2018-06-15T14:51:46.690Z,2.02
2018-06-15T14:56:51.213Z,2.67
2018-06-15T15:01:55.658Z,1.98
2018-06-15T15:07:00.171Z,2.05
2018-06-15T15:12:04.628Z,2.12
2018-06-15T15:17:09.361Z,2.80
2018-06-15T15:22:13.799Z,2.37
2018-06-15T15:27:18.247Z,2.35
2018-06-15T15:32:22.669Z,3.35
2018-06-15T15:37:27.087Z,1.85
2018-06-15T15:42:31.549Z,2.58
2018-06-15T15:47:35.956Z,1.75
2018-06-15T15:52:41.485Z,4.60
2018-06-15T15:57:46.176Z,1.90
2018-06-15T16:02:50.636Z,2.62
2018-06-15T16:07:55.142Z,2.22
2018-06-15T16:12:59.551Z,3.72
2018-06-15T16:18:04.272Z,3.22
2018-06-15T16:23:08.728Z,2.70
2018-06-15T16:28:13.250Z,2.92
2018-06-15T16:33:17.832Z,2.60
2018-06-15T16:38:22.401Z,3.15
2018-06-15T16:43:27.023Z,3.72
2018-06-15T16:48:31.594Z,6.70
2018-06-15T16:53:36.061Z,2.83
2018-06-15T16:58:40.538Z,3.45
2018-06-15T17:03:45.213Z,1.98
2018-06-15T17:08:49.809Z,2.20
2018-06-15T17:13:54.440Z,4.00
2018-06-15T17:18:58.916Z,3.35
2018-06-15T17:24:03.433Z,4.05
2018-06-15T17:29:07.983Z,3.35
2018-06-15T17:34:12.652Z,4.22
2018-06-15T17:39:17.252Z,3.77
2018-06-15T17:44:21.814Z,3.58
2018-06-15T17:49:26.316Z,3.95
2018-06-15T17:54:30.951Z,4.30
2018-06-15T17:59:35.717Z,4.28
2018-06-15T18:04:40.225Z,3.47
2018-06-15T18:09:44.736Z,3.27
2018-06-15T18:14:49.368Z,2.40
2018-06-15T18:19:54.004Z,3.50
2018-06-15T18:24:58.712Z,2.70
2018-06-15T18:30:03.195Z,2.58
2018-06-15T18:35:07.642Z,4.55
2018-06-15T18:40:12.041Z,2.72
2018-06-15T18:45:16.633Z,4.85
2018-06-15T18:50:21.287Z,3.72
2018-06-15T18:55:25.769Z,8.90
2018-06-15T19:00:30.428Z,4.30
2018-06-15T19:05:34.946Z,4.92
2018-06-15T19:10:39.397Z,5.42
2018-06-15T19:15:44.028Z,3.62
2018-06-15T19:20:48.511Z,13.53
2018-06-15T19:25:52.975Z,4.47
2018-06-15T19:30:57.772Z,6.95
2018-06-15T19:36:02.262Z,17.45
2018-06-15T19:41:06.850Z,17.52
2018-06-15T19:46:11.350Z,45.65
2018-06-15T19:51:15.822Z,21.35
2018-06-15T19:56:20.283Z,56.40
2018-06-15T20:01:24.951Z,45.48
2018-06-15T20:06:29.374Z,40.48
2018-06-15T20:11:33.913Z,15.72
2018-06-15T20:16:38.408Z,4.92
2018-06-15T20:21:43.084Z,6.90
2018-06-15T20:26:47.578Z,3.77
2018-06-15T20:31:52.650Z,5.20
2018-06-15T20:36:57.244Z,2.90
2018-06-15T20:42:01.910Z,4.62
2018-06-15T20:47:06.548Z,5.05
2018-06-15T20:52:11.015Z,2.72
2018-06-15T20:57:15.506Z,3.70
2018-06-15T21:02:20.020Z,3.15
2018-06-15T21:07:24.923Z,11.75
2018-06-15T21:12:29.387Z,4.35
2018-06-15T21:17:33.883Z,7.25
2018-06-15T21:22:38.360Z,3.17
2018-06-15T21:27:42.878Z,4.10
2018-06-15T21:32:47.378Z,4.12
2018-06-15T21:37:51.963Z,3.70
2018-06-15T21:42:56.608Z,3.42
2018-06-15T21:48:01.210Z,4.20
2018-06-15T21:53:05.796Z,4.55
2018-06-15T21:58:10.488Z,3.47
2018-06-15T22:03:14.960Z,3.72
2018-06-15T22:08:19.524Z,4.95
2018-06-15T22:13:23.960Z,4.08
2018-06-15T22:18:28.521Z,3.98
2018-06-15T22:23:32.969Z,4.10
